sensor_id;sensor_type;location;lat;lon;timestamp;P1;durP1;ratioP1;P2;durP2;ratioP2
13731;SDS011;6937;56.096;12.664;2023-05-23T00:00:57;2.75;;;2.40;;
13731;SDS011;6937;56.096;12.664;2023-05-23T00:03:25;4.60;;;2.50;;
13731;SDS011;6937;56.096;12.664;2023-05-23T00:05:51;4.05;;;2.20;;
13731;SDS011;6937;56.096;12.664;2023-05-23T00:08:17;3.92;;;2.50;;
13731;SDS011;6937;56.096;12.664;2023-05-23T00:10:43;4.05;;;2.65;;
13731;SDS011;6937;56.096;12.664;2023-05-23T00:13:08;3.13;;;2.83;;
13731;SDS011;6937;56.096;12.664;2023-05-23T00:15:36;4.25;;;2.75;;
13731;SDS011;6937;56.096;12.664;2023-05-23T00:18:08;3.67;;;2.70;;
13731;SDS011;6937;56.096;12.664;2023-05-23T00:20:37;3.47;;;3.00;;
13731;SDS011;6937;56.096;12.664;2023-05-23T00:23:07;5.70;;;3.13;;
13731;SDS011;6937;56.096;12.664;2023-05-23T00:25:42;3.28;;;2.60;;
13731;SDS011;6937;56.096;12.664;2023-05-23T00:28:12;4.32;;;2.60;;
13731;SDS011;6937;56.096;12.664;2023-05-23T00:30:38;3.08;;;2.78;;
13731;SDS011;6937;56.096;12.664;2023-05-23T00:33:03;3.75;;;2.85;;
13731;SDS011;6937;56.096;12.664;2023-05-23T00:35:29;4.10;;;2.97;;
13731;SDS011;6937;56.096;12.664;2023-05-23T00:37:54;4.10;;;2.60;;
13731;SDS011;6937;56.096;12.664;2023-05-23T00:40:20;4.18;;;2.72;;
13731;SDS011;6937;56.096;12.664;2023-05-23T00:42:47;4.47;;;2.80;;
13731;SDS011;6937;56.096;12.664;2023-05-23T00:45:12;3.47;;;2.60;;
13731;SDS011;6937;56.096;12.664;2023-05-23T00:47:39;3.83;;;2.78;;
13731;SDS011;6937;56.096;12.664;2023-05-23T00:50:09;4.68;;;2.75;;
13731;SDS011;6937;56.096;12.664;2023-05-23T00:52:36;4.10;;;3.13;;
13731;SDS011;6937;56.096;12.664;2023-05-23T00:55:03;5.85;;;3.05;;
13731;SDS011;6937;56.096;12.664;2023-05-23T00:57:29;3.28;;;2.80;;
13731;SDS011;6937;56.096;12.664;2023-05-23T00:59:54;3.72;;;2.92;;
13731;SDS011;6937;56.096;12.664;2023-05-23T01:02:20;3.42;;;2.80;;
13731;SDS011;6937;56.096;12.664;2023-05-23T01:04:46;3.67;;;3.13;;
13731;SDS011;6937;56.096;12.664;2023-05-23T01:07:18;5.13;;;3.13;;
13731;SDS011;6937;56.096;12.664;2023-05-23T01:09:43;4.55;;;3.00;;
13731;SDS011;6937;56.096;12.664;2023-05-23T01:12:18;4.20;;;2.72;;
13731;SDS011;6937;56.096;12.664;2023-05-23T01:14:58;3.13;;;2.80;;
13731;SDS011;6937;56.096;12.664;2023-05-23T01:17:28;3.10;;;2.90;;
13731;SDS011;6937;56.096;12.664;2023-05-23T01:20:08;3.42;;;2.83;;
13731;SDS011;6937;56.096;12.664;2023-05-23T01:28:05;3.80;;;2.97;;
13731;SDS011;6937;56.096;12.664;2023-05-23T01:30:36;4.28;;;3.00;;
13731;SDS011;6937;56.096;12.664;2023-05-23T01:33:04;4.60;;;2.95;;
13731;SDS011;6937;56.096;12.664;2023-05-23T01:35:31;3.25;;;2.97;;
13731;SDS011;6937;56.096;12.664;2023-05-23T01:37:57;5.75;;;3.08;;
13731;SDS011;6937;56.096;12.664;2023-05-23T01:40:23;4.22;;;2.63;;
13731;SDS011;6937;56.096;12.664;2023-05-23T01:42:50;3.38;;;2.90;;
13731;SDS011;6937;56.096;12.664;2023-05-23T01:45:21;3.47;;;2.72;;
13731;SDS011;6937;56.096;12.664;2023-05-23T01:47:48;4.95;;;3.22;;
13731;SDS011;6937;56.096;12.664;2023-05-23T01:50:15;3.60;;;3.00;;
13731;SDS011;6937;56.096;12.664;2023-05-23T01:52:41;3.83;;;2.80;;
13731;SDS011;6937;56.096;12.664;2023-05-23T01:55:07;5.30;;;3.35;;
13731;SDS011;6937;56.096;12.664;2023-05-23T01:57:34;3.80;;;2.97;;
13731;SDS011;6937;56.096;12.664;2023-05-23T02:00:07;4.43;;;3.10;;
13731;SDS011;6937;56.096;12.664;2023-05-23T02:02:34;3.25;;;2.75;;
13731;SDS011;6937;56.096;12.664;2023-05-23T02:05:00;3.15;;;2.83;;
13731;SDS011;6937;56.096;12.664;2023-05-23T02:07:26;4.15;;;3.15;;
13731;SDS011;6937;56.096;12.664;2023-05-23T02:09:51;3.78;;;3.20;;
13731;SDS011;6937;56.096;12.664;2023-05-23T02:12:16;3.63;;;2.88;;
13731;SDS011;6937;56.096;12.664;2023-05-23T02:14:42;3.92;;;2.90;;
13731;SDS011;6937;56.096;12.664;2023-05-23T02:17:07;3.53;;;2.85;;
13731;SDS011;6937;56.096;12.664;2023-05-23T02:19:36;4.97;;;3.42;;
13731;SDS011;6937;56.096;12.664;2023-05-23T02:22:02;3.38;;;2.83;;
13731;SDS011;6937;56.096;12.664;2023-05-23T02:24:27;8.57;;;3.00;;
13731;SDS011;6937;56.096;12.664;2023-05-23T02:26:53;3.65;;;2.90;;
13731;SDS011;6937;56.096;12.664;2023-05-23T02:29:18;3.35;;;2.55;;
13731;SDS011;6937;56.096;12.664;2023-05-23T02:31:44;4.32;;;2.72;;
13731;SDS011;6937;56.096;12.664;2023-05-23T02:34:09;3.00;;;2.60;;
13731;SDS011;6937;56.096;12.664;2023-05-23T02:36:35;2.75;;;2.42;;
13731;SDS011;6937;56.096;12.664;2023-05-23T02:39:01;3.80;;;2.55;;
13731;SDS011;6937;56.096;12.664;2023-05-23T02:41:27;4.40;;;2.88;;
13731;SDS011;6937;56.096;12.664;2023-05-23T02:43:52;3.15;;;2.85;;
13731;SDS011;6937;56.096;12.664;2023-05-23T02:46:18;4.95;;;3.20;;
13731;SDS011;6937;56.096;12.664;2023-05-23T02:48:43;2.80;;;2.60;;
13731;SDS011;6937;56.096;12.664;2023-05-23T02:51:09;2.88;;;2.65;;
13731;SDS011;6937;56.096;12.664;2023-05-23T02:53:34;2.95;;;2.60;;
13731;SDS011;6937;56.096;12.664;2023-05-23T02:56:00;4.38;;;2.83;;
13731;SDS011;6937;56.096;12.664;2023-05-23T02:58:25;2.97;;;2.67;;
13731;SDS011;6937;56.096;12.664;2023-05-23T03:00:51;3.20;;;2.90;;
13731;SDS011;6937;56.096;12.664;2023-05-23T03:03:16;3.05;;;2.75;;
13731;SDS011;6937;56.096;12.664;2023-05-23T03:05:42;3.20;;;2.70;;
13731;SDS011;6937;56.096;12.664;2023-05-23T03:08:07;3.92;;;2.75;;
13731;SDS011;6937;56.096;12.664;2023-05-23T03:10:33;5.40;;;2.97;;
13731;SDS011;6937;56.096;12.664;2023-05-23T03:12:58;3.20;;;3.00;;
13731;SDS011;6937;56.096;12.664;2023-05-23T03:15:23;4.53;;;3.25;;
13731;SDS011;6937;56.096;12.664;2023-05-23T03:17:49;3.97;;;2.67;;
13731;SDS011;6937;56.096;12.664;2023-05-23T03:20:14;5.32;;;2.67;;
13731;SDS011;6937;56.096;12.664;2023-05-23T03:22:40;3.20;;;2.83;;
13731;SDS011;6937;56.096;12.664;2023-05-23T03:25:07;3.13;;;2.83;;
13731;SDS011;6937;56.096;12.664;2023-05-23T03:27:33;3.58;;;2.72;;
13731;SDS011;6937;56.096;12.664;2023-05-23T03:29:58;6.78;;;2.97;;
13731;SDS011;6937;56.096;12.664;2023-05-23T03:32:24;5.30;;;2.45;;
13731;SDS011;6937;56.096;12.664;2023-05-23T03:34:49;3.42;;;2.55;;
13731;SDS011;6937;56.096;12.664;2023-05-23T03:37:15;3.10;;;2.75;;
13731;SDS011;6937;56.096;12.664;2023-05-23T03:39:40;3.03;;;2.75;;
13731;SDS011;6937;56.096;12.664;2023-05-23T03:42:06;3.53;;;2.70;;
13731;SDS011;6937;56.096;12.664;2023-05-23T03:44:31;2.83;;;2.63;;
13731;SDS011;6937;56.096;12.664;2023-05-23T03:46:57;3.05;;;2.70;;
13731;SDS011;6937;56.096;12.664;2023-05-23T03:49:22;3.97;;;3.00;;
13731;SDS011;6937;56.096;12.664;2023-05-23T03:51:47;3.15;;;2.83;;
13731;SDS011;6937;56.096;12.664;2023-05-23T03:54:13;2.97;;;2.70;;
13731;SDS011;6937;56.096;12.664;2023-05-23T03:56:38;2.90;;;2.70;;
13731;SDS011;6937;56.096;12.664;2023-05-23T03:59:03;2.97;;;2.50;;
13731;SDS011;6937;56.096;12.664;2023-05-23T04:01:29;3.90;;;2.70;;
13731;SDS011;6937;56.096;12.664;2023-05-23T04:03:54;3.00;;;2.55;;
13731;SDS011;6937;56.096;12.664;2023-05-23T04:06:19;2.47;;;2.28;;
13731;SDS011;6937;56.096;12.664;2023-05-23T04:08:46;4.45;;;2.63;;
13731;SDS011;6937;56.096;12.664;2023-05-23T04:11:12;2.45;;;2.25;;
13731;SDS011;6937;56.096;12.664;2023-05-23T04:13:38;2.65;;;2.40;;
13731;SDS011;6937;56.096;12.664;2023-05-23T04:16:03;3.33;;;2.85;;
13731;SDS011;6937;56.096;12.664;2023-05-23T04:18:30;3.10;;;2.67;;
13731;SDS011;6937;56.096;12.664;2023-05-23T04:20:57;2.88;;;2.50;;
13731;SDS011;6937;56.096;12.664;2023-05-23T04:23:23;2.95;;;2.65;;
13731;SDS011;6937;56.096;12.664;2023-05-23T04:25:48;4.45;;;2.80;;
13731;SDS011;6937;56.096;12.664;2023-05-23T04:28:15;3.83;;;2.60;;
13731;SDS011;6937;56.096;12.664;2023-05-23T04:30:41;3.80;;;2.70;;
13731;SDS011;6937;56.096;12.664;2023-05-23T04:33:07;3.50;;;2.85;;
13731;SDS011;6937;56.096;12.664;2023-05-23T04:35:32;6.53;;;2.70;;
13731;SDS011;6937;56.096;12.664;2023-05-23T04:37:58;3.75;;;2.70;;
13731;SDS011;6937;56.096;12.664;2023-05-23T04:40:23;3.20;;;2.90;;
13731;SDS011;6937;56.096;12.664;2023-05-23T04:42:49;2.80;;;2.60;;
13731;SDS011;6937;56.096;12.664;2023-05-23T04:45:17;4.18;;;2.70;;
13731;SDS011;6937;56.096;12.664;2023-05-23T04:47:43;4.07;;;2.40;;
13731;SDS011;6937;56.096;12.664;2023-05-23T04:50:10;3.97;;;2.75;;
13731;SDS011;6937;56.096;12.664;2023-05-23T04:52:35;3.42;;;2.40;;
13731;SDS011;6937;56.096;12.664;2023-05-23T04:55:00;6.85;;;3.00;;
13731;SDS011;6937;56.096;12.664;2023-05-23T04:57:26;8.13;;;3.25;;
13731;SDS011;6937;56.096;12.664;2023-05-23T04:59:51;9.75;;;3.03;;
13731;SDS011;6937;56.096;12.664;2023-05-23T05:02:17;22.10;;;3.80;;
13731;SDS011;6937;56.096;12.664;2023-05-23T05:04:43;14.07;;;3.80;;
13731;SDS011;6937;56.096;12.664;2023-05-23T05:07:08;10.85;;;2.95;;
13731;SDS011;6937;56.096;12.664;2023-05-23T05:09:33;5.13;;;2.75;;
13731;SDS011;6937;56.096;12.664;2023-05-23T05:11:59;4.05;;;2.40;;
13731;SDS011;6937;56.096;12.664;2023-05-23T05:14:25;5.95;;;2.42;;
13731;SDS011;6937;56.096;12.664;2023-05-23T05:16:51;4.70;;;2.40;;
13731;SDS011;6937;56.096;12.664;2023-05-23T05:19:16;2.60;;;2.40;;
13731;SDS011;6937;56.096;12.664;2023-05-23T05:21:41;3.05;;;2.80;;
13731;SDS011;6937;56.096;12.664;2023-05-23T05:24:07;4.57;;;2.25;;
13731;SDS011;6937;56.096;12.664;2023-05-23T05:26:34;3.60;;;2.60;;
13731;SDS011;6937;56.096;12.664;2023-05-23T05:29:00;4.57;;;2.60;;
13731;SDS011;6937;56.096;12.664;2023-05-23T05:31:26;2.50;;;2.28;;
13731;SDS011;6937;56.096;12.664;2023-05-23T05:33:51;4.18;;;2.50;;
13731;SDS011;6937;56.096;12.664;2023-05-23T05:36:18;2.75;;;2.47;;
13731;SDS011;6937;56.096;12.664;2023-05-23T05:38:44;3.60;;;2.20;;
13731;SDS011;6937;56.096;12.664;2023-05-23T05:41:09;2.63;;;2.42;;
13731;SDS011;6937;56.096;12.664;2023-05-23T05:43:35;2.40;;;2.20;;
13731;SDS011;6937;56.096;12.664;2023-05-23T05:46:00;3.90;;;2.28;;
13731;SDS011;6937;56.096;12.664;2023-05-23T05:48:26;2.42;;;2.22;;
13731;SDS011;6937;56.096;12.664;2023-05-23T05:50:51;4.13;;;2.50;;
13731;SDS011;6937;56.096;12.664;2023-05-23T05:53:16;4.25;;;2.22;;
13731;SDS011;6937;56.096;12.664;2023-05-23T05:55:42;3.15;;;2.47;;
13731;SDS011;6937;56.096;12.664;2023-05-23T05:58:07;3.28;;;2.15;;
13731;SDS011;6937;56.096;12.664;2023-05-23T06:00:32;2.80;;;2.55;;
13731;SDS011;6937;56.096;12.664;2023-05-23T06:03:05;4.90;;;2.53;;
13731;SDS011;6937;56.096;12.664;2023-05-23T06:05:31;3.20;;;2.08;;
13731;SDS011;6937;56.096;12.664;2023-05-23T06:07:56;3.08;;;2.38;;
13731;SDS011;6937;56.096;12.664;2023-05-23T06:10:22;3.45;;;2.58;;
13731;SDS011;6937;56.096;12.664;2023-05-23T06:12:48;4.38;;;2.10;;
13731;SDS011;6937;56.096;12.664;2023-05-23T06:15:14;5.80;;;2.78;;
13731;SDS011;6937;56.096;12.664;2023-05-23T06:17:40;2.97;;;2.13;;
13731;SDS011;6937;56.096;12.664;2023-05-23T06:20:06;5.43;;;2.60;;
13731;SDS011;6937;56.096;12.664;2023-05-23T06:22:32;3.33;;;2.50;;
13731;SDS011;6937;56.096;12.664;2023-05-23T06:24:58;3.15;;;2.28;;
13731;SDS011;6937;56.096;12.664;2023-05-23T06:27:23;2.50;;;2.30;;
13731;SDS011;6937;56.096;12.664;2023-05-23T06:29:48;6.30;;;2.30;;
13731;SDS011;6937;56.096;12.664;2023-05-23T06:32:14;5.25;;;2.17;;
13731;SDS011;6937;56.096;12.664;2023-05-23T06:34:39;3.75;;;2.20;;
13731;SDS011;6937;56.096;12.664;2023-05-23T06:37:05;3.30;;;2.38;;
13731;SDS011;6937;56.096;12.664;2023-05-23T06:39:30;4.90;;;2.35;;
13731;SDS011;6937;56.096;12.664;2023-05-23T06:41:56;5.43;;;2.53;;
13731;SDS011;6937;56.096;12.664;2023-05-23T06:44:21;4.20;;;2.63;;
13731;SDS011;6937;56.096;12.664;2023-05-23T06:46:46;4.25;;;3.10;;
13731;SDS011;6937;56.096;12.664;2023-05-23T06:49:12;4.53;;;2.85;;
13731;SDS011;6937;56.096;12.664;2023-05-23T06:51:38;4.57;;;2.63;;
13731;SDS011;6937;56.096;12.664;2023-05-23T06:54:04;5.88;;;3.10;;
13731;SDS011;6937;56.096;12.664;2023-05-23T06:56:30;3.47;;;2.38;;
13731;SDS011;6937;56.096;12.664;2023-05-23T06:58:55;7.85;;;2.42;;
13731;SDS011;6937;56.096;12.664;2023-05-23T07:01:21;5.40;;;3.30;;
13731;SDS011;6937;56.096;12.664;2023-05-23T07:03:46;10.93;;;3.15;;
13731;SDS011;6937;56.096;12.664;2023-05-23T07:06:12;4.32;;;2.85;;
13731;SDS011;6937;56.096;12.664;2023-05-23T07:08:37;5.07;;;2.97;;
13731;SDS011;6937;56.096;12.664;2023-05-23T07:11:03;6.43;;;2.83;;
13731;SDS011;6937;56.096;12.664;2023-05-23T07:13:30;3.42;;;2.53;;
13731;SDS011;6937;56.096;12.664;2023-05-23T07:15:55;7.55;;;2.97;;
13731;SDS011;6937;56.096;12.664;2023-05-23T07:18:21;4.43;;;2.90;;
13731;SDS011;6937;56.096;12.664;2023-05-23T07:20:47;6.70;;;2.90;;
13731;SDS011;6937;56.096;12.664;2023-05-23T07:23:13;3.58;;;2.70;;
13731;SDS011;6937;56.096;12.664;2023-05-23T07:25:38;4.40;;;3.00;;
13731;SDS011;6937;56.096;12.664;2023-05-23T07:28:06;3.40;;;3.03;;
13731;SDS011;6937;56.096;12.664;2023-05-23T07:30:32;4.22;;;3.05;;
13731;SDS011;6937;56.096;12.664;2023-05-23T07:32:57;5.80;;;3.13;;
13731;SDS011;6937;56.096;12.664;2023-05-23T07:35:22;4.72;;;3.00;;
13731;SDS011;6937;56.096;12.664;2023-05-23T07:37:50;3.30;;;2.78;;
13731;SDS011;6937;56.096;12.664;2023-05-23T07:40:17;3.22;;;2.72;;
13731;SDS011;6937;56.096;12.664;2023-05-23T07:42:42;4.65;;;3.17;;
13731;SDS011;6937;56.096;12.664;2023-05-23T07:45:08;3.47;;;2.70;;
13731;SDS011;6937;56.096;12.664;2023-05-23T07:47:33;5.07;;;3.28;;
13731;SDS011;6937;56.096;12.664;2023-05-23T07:49:59;5.20;;;3.13;;
13731;SDS011;6937;56.096;12.664;2023-05-23T07:52:26;3.55;;;3.03;;
13731;SDS011;6937;56.096;12.664;2023-05-23T07:54:53;4.90;;;3.45;;
13731;SDS011;6937;56.096;12.664;2023-05-23T07:57:18;3.85;;;2.90;;
13731;SDS011;6937;56.096;12.664;2023-05-23T07:59:43;4.28;;;2.67;;
13731;SDS011;6937;56.096;12.664;2023-05-23T08:02:09;6.50;;;3.50;;
13731;SDS011;6937;56.096;12.664;2023-05-23T08:04:34;4.60;;;3.47;;
13731;SDS011;6937;56.096;12.664;2023-05-23T08:07:00;4.57;;;3.03;;
13731;SDS011;6937;56.096;12.664;2023-05-23T08:09:26;6.15;;;3.45;;
13731;SDS011;6937;56.096;12.664;2023-05-23T08:11:51;4.25;;;3.38;;
13731;SDS011;6937;56.096;12.664;2023-05-23T08:14:17;7.45;;;3.60;;
13731;SDS011;6937;56.096;12.664;2023-05-23T08:16:42;3.83;;;3.38;;
13731;SDS011;6937;56.096;12.664;2023-05-23T08:19:07;3.90;;;3.50;;
13731;SDS011;6937;56.096;12.664;2023-05-23T08:21:34;4.93;;;3.20;;
13731;SDS011;6937;56.096;12.664;2023-05-23T08:24:00;3.80;;;3.40;;
13731;SDS011;6937;56.096;12.664;2023-05-23T08:26:25;5.45;;;3.28;;
13731;SDS011;6937;56.096;12.664;2023-05-23T08:28:54;5.18;;;3.50;;
13731;SDS011;6937;56.096;12.664;2023-05-23T08:31:19;3.45;;;3.13;;
13731;SDS011;6937;56.096;12.664;2023-05-23T08:33:45;3.05;;;2.45;;
13731;SDS011;6937;56.096;12.664;2023-05-23T08:36:11;4.63;;;2.90;;
13731;SDS011;6937;56.096;12.664;2023-05-23T08:38:36;6.88;;;3.20;;
13731;SDS011;6937;56.096;12.664;2023-05-23T08:41:02;4.88;;;2.97;;
13731;SDS011;6937;56.096;12.664;2023-05-23T08:43:33;4.35;;;2.88;;
13731;SDS011;6937;56.096;12.664;2023-05-23T08:45:58;4.07;;;3.40;;
13731;SDS011;6937;56.096;12.664;2023-05-23T08:48:23;6.43;;;3.88;;
13731;SDS011;6937;56.096;12.664;2023-05-23T08:50:51;5.97;;;3.50;;
13731;SDS011;6937;56.096;12.664;2023-05-23T08:53:17;5.88;;;3.45;;
13731;SDS011;6937;56.096;12.664;2023-05-23T08:55:45;6.20;;;3.80;;
13731;SDS011;6937;56.096;12.664;2023-05-23T08:58:12;3.85;;;3.05;;
13731;SDS011;6937;56.096;12.664;2023-05-23T09:00:39;4.57;;;2.95;;
13731;SDS011;6937;56.096;12.664;2023-05-23T09:03:07;4.60;;;3.03;;
13731;SDS011;6937;56.096;12.664;2023-05-23T09:05:36;3.53;;;3.08;;
13731;SDS011;6937;56.096;12.664;2023-05-23T09:08:01;4.22;;;2.85;;
13731;SDS011;6937;56.096;12.664;2023-05-23T09:10:27;3.63;;;2.83;;
13731;SDS011;6937;56.096;12.664;2023-05-23T09:12:53;4.38;;;2.88;;
13731;SDS011;6937;56.096;12.664;2023-05-23T09:15:19;3.70;;;3.13;;
13731;SDS011;6937;56.096;12.664;2023-05-23T09:17:46;4.63;;;3.08;;
13731;SDS011;6937;56.096;12.664;2023-05-23T09:20:12;3.17;;;2.83;;
13731;SDS011;6937;56.096;12.664;2023-05-23T09:22:40;3.67;;;3.38;;
13731;SDS011;6937;56.096;12.664;2023-05-23T09:25:09;4.68;;;2.97;;
13731;SDS011;6937;56.096;12.664;2023-05-23T09:27:35;3.53;;;3.00;;
13731;SDS011;6937;56.096;12.664;2023-05-23T09:30:09;3.90;;;2.88;;
13731;SDS011;6937;56.096;12.664;2023-05-23T09:32:35;4.45;;;2.83;;
13731;SDS011;6937;56.096;12.664;2023-05-23T09:35:05;3.30;;;3.00;;
13731;SDS011;6937;56.096;12.664;2023-05-23T09:37:32;4.13;;;3.30;;
13731;SDS011;6937;56.096;12.664;2023-05-23T09:39:59;6.95;;;3.15;;
13731;SDS011;6937;56.096;12.664;2023-05-23T09:42:30;6.07;;;2.75;;
13731;SDS011;6937;56.096;12.664;2023-05-23T09:44:58;4.50;;;2.97;;
13731;SDS011;6937;56.096;12.664;2023-05-23T09:47:23;3.80;;;3.40;;
13731;SDS011;6937;56.096;12.664;2023-05-23T09:49:48;4.47;;;2.85;;
13731;SDS011;6937;56.096;12.664;2023-05-23T09:52:15;3.25;;;2.80;;
13731;SDS011;6937;56.096;12.664;2023-05-23T09:54:42;4.13;;;2.83;;
13731;SDS011;6937;56.096;12.664;2023-05-23T09:57:09;3.40;;;2.38;;
13731;SDS011;6937;56.096;12.664;2023-05-23T09:59:37;4.15;;;2.90;;
13731;SDS011;6937;56.096;12.664;2023-05-23T10:02:05;5.35;;;3.40;;
13731;SDS011;6937;56.096;12.664;2023-05-23T10:04:38;6.05;;;3.03;;
13731;SDS011;6937;56.096;12.664;2023-05-23T10:07:27;6.63;;;3.38;;
13731;SDS011;6937;56.096;12.664;2023-05-23T10:09:53;4.57;;;3.10;;
13731;SDS011;6937;56.096;12.664;2023-05-23T10:15:12;4.72;;;2.83;;
13731;SDS011;6937;56.096;12.664;2023-05-23T10:18:01;3.95;;;3.40;;
13731;SDS011;6937;56.096;12.664;2023-05-23T10:20:31;5.05;;;3.47;;
13731;SDS011;6937;56.096;12.664;2023-05-23T10:23:00;3.28;;;2.97;;
13731;SDS011;6937;56.096;12.664;2023-05-23T10:25:27;7.55;;;3.20;;
13731;SDS011;6937;56.096;12.664;2023-05-23T10:27:56;4.30;;;3.90;;
13731;SDS011;6937;56.096;12.664;2023-05-23T10:30:26;4.50;;;4.10;;
13731;SDS011;6937;56.096;12.664;2023-05-23T10:32:55;4.80;;;3.85;;
13731;SDS011;6937;56.096;12.664;2023-05-23T10:38:12;5.65;;;4.10;;
13731;SDS011;6937;56.096;12.664;2023-05-23T10:43:32;5.20;;;3.88;;
13731;SDS011;6937;56.096;12.664;2023-05-23T10:46:19;6.25;;;4.03;;
13731;SDS011;6937;56.096;12.664;2023-05-23T10:48:51;6.45;;;4.32;;
13731;SDS011;6937;56.096;12.664;2023-05-23T10:51:21;5.90;;;3.95;;
13731;SDS011;6937;56.096;12.664;2023-05-23T10:53:49;5.57;;;3.78;;
13731;SDS011;6937;56.096;12.664;2023-05-23T10:56:19;4.07;;;3.53;;
13731;SDS011;6937;56.096;12.664;2023-05-23T10:58:52;6.53;;;4.30;;
13731;SDS011;6937;56.096;12.664;2023-05-23T11:01:18;4.18;;;3.80;;
13731;SDS011;6937;56.096;12.664;2023-05-23T11:06:27;5.13;;;3.83;;
13731;SDS011;6937;56.096;12.664;2023-05-23T11:09:12;6.32;;;4.20;;
13731;SDS011;6937;56.096;12.664;2023-05-23T11:14:14;5.05;;;3.95;;
13731;SDS011;6937;56.096;12.664;2023-05-23T11:16:40;5.50;;;3.83;;
13731;SDS011;6937;56.096;12.664;2023-05-23T11:21:49;4.78;;;3.78;;
13731;SDS011;6937;56.096;12.664;2023-05-23T11:24:15;6.60;;;4.20;;
13731;SDS011;6937;56.096;12.664;2023-05-23T11:26:50;4.40;;;3.55;;
13731;SDS011;6937;56.096;12.664;2023-05-23T11:29:18;5.65;;;4.07;;
13731;SDS011;6937;56.096;12.664;2023-05-23T11:31:44;4.97;;;3.75;;
13731;SDS011;6937;56.096;12.664;2023-05-23T11:34:09;5.07;;;4.20;;
13731;SDS011;6937;56.096;12.664;2023-05-23T11:36:36;7.50;;;4.10;;
13731;SDS011;6937;56.096;12.664;2023-05-23T11:39:02;4.53;;;4.13;;
13731;SDS011;6937;56.096;12.664;2023-05-23T11:41:28;4.32;;;3.92;;
13731;SDS011;6937;56.096;12.664;2023-05-23T11:43:54;5.60;;;4.30;;
13731;SDS011;6937;56.096;12.664;2023-05-23T11:46:20;6.15;;;4.28;;
13731;SDS011;6937;56.096;12.664;2023-05-23T11:48:46;6.20;;;4.13;;
13731;SDS011;6937;56.096;12.664;2023-05-23T11:51:13;4.97;;;4.00;;
13731;SDS011;6937;56.096;12.664;2023-05-23T11:53:39;4.30;;;3.90;;
13731;SDS011;6937;56.096;12.664;2023-05-23T11:56:05;4.22;;;3.85;;
13731;SDS011;6937;56.096;12.664;2023-05-23T11:58:34;5.00;;;3.70;;
13731;SDS011;6937;56.096;12.664;2023-05-23T12:01:05;7.18;;;4.18;;
13731;SDS011;6937;56.096;12.664;2023-05-23T12:03:48;4.53;;;3.92;;
13731;SDS011;6937;56.096;12.664;2023-05-23T12:06:15;5.20;;;4.47;;
13731;SDS011;6937;56.096;12.664;2023-05-23T12:08:42;7.68;;;3.88;;
13731;SDS011;6937;56.096;12.664;2023-05-23T12:11:08;6.22;;;4.05;;
13731;SDS011;6937;56.096;12.664;2023-05-23T12:13:34;4.30;;;3.90;;
13731;SDS011;6937;56.096;12.664;2023-05-23T12:16:00;4.03;;;3.63;;
13731;SDS011;6937;56.096;12.664;2023-05-23T12:18:27;4.00;;;3.60;;
13731;SDS011;6937;56.096;12.664;2023-05-23T12:20:53;4.90;;;4.15;;
13731;SDS011;6937;56.096;12.664;2023-05-23T12:23:20;4.30;;;3.75;;
13731;SDS011;6937;56.096;12.664;2023-05-23T12:25:52;6.40;;;4.10;;
13731;SDS011;6937;56.096;12.664;2023-05-23T12:28:19;4.63;;;3.80;;
13731;SDS011;6937;56.096;12.664;2023-05-23T12:30:45;5.90;;;4.03;;
13731;SDS011;6937;56.096;12.664;2023-05-23T12:33:11;5.47;;;4.07;;
13731;SDS011;6937;56.096;12.664;2023-05-23T12:35:37;6.28;;;4.50;;
13731;SDS011;6937;56.096;12.664;2023-05-23T12:38:07;5.65;;;4.20;;
13731;SDS011;6937;56.096;12.664;2023-05-23T12:40:34;7.03;;;4.07;;
13731;SDS011;6937;56.096;12.664;2023-05-23T12:43:00;5.40;;;4.07;;
13731;SDS011;6937;56.096;12.664;2023-05-23T12:45:32;5.63;;;4.78;;
13731;SDS011;6937;56.096;12.664;2023-05-23T12:47:58;4.82;;;4.10;;
13731;SDS011;6937;56.096;12.664;2023-05-23T12:50:24;5.22;;;4.72;;
13731;SDS011;6937;56.096;12.664;2023-05-23T12:52:50;6.72;;;4.95;;
13731;SDS011;6937;56.096;12.664;2023-05-23T12:55:16;6.68;;;4.97;;
13731;SDS011;6937;56.096;12.664;2023-05-23T12:57:42;5.18;;;4.68;;
13731;SDS011;6937;56.096;12.664;2023-05-23T13:00:08;5.90;;;5.28;;
13731;SDS011;6937;56.096;12.664;2023-05-23T13:02:34;5.07;;;4.57;;
13731;SDS011;6937;56.096;12.664;2023-05-23T13:05:00;6.15;;;4.80;;
13731;SDS011;6937;56.096;12.664;2023-05-23T13:07:25;6.82;;;4.90;;
13731;SDS011;6937;56.096;12.664;2023-05-23T13:09:51;6.13;;;4.80;;
13731;SDS011;6937;56.096;12.664;2023-05-23T13:12:16;5.47;;;4.97;;
13731;SDS011;6937;56.096;12.664;2023-05-23T13:14:42;7.80;;;5.03;;
13731;SDS011;6937;56.096;12.664;2023-05-23T13:17:07;6.80;;;4.82;;
13731;SDS011;6937;56.096;12.664;2023-05-23T13:19:33;5.45;;;4.88;;
13731;SDS011;6937;56.096;12.664;2023-05-23T13:21:58;4.72;;;4.32;;
13731;SDS011;6937;56.096;12.664;2023-05-23T13:24:24;4.90;;;4.40;;
13731;SDS011;6937;56.096;12.664;2023-05-23T13:26:50;5.30;;;4.47;;
13731;SDS011;6937;56.096;12.664;2023-05-23T13:29:15;5.57;;;4.93;;
13731;SDS011;6937;56.096;12.664;2023-05-23T13:31:41;6.43;;;4.65;;
13731;SDS011;6937;56.096;12.664;2023-05-23T13:34:06;7.60;;;5.50;;
13731;SDS011;6937;56.096;12.664;2023-05-23T13:36:32;6.35;;;4.97;;
13731;SDS011;6937;56.096;12.664;2023-05-23T13:38:57;5.18;;;4.72;;
13731;SDS011;6937;56.096;12.664;2023-05-23T13:41:23;4.95;;;4.40;;
13731;SDS011;6937;56.096;12.664;2023-05-23T13:43:48;6.15;;;5.00;;
13731;SDS011;6937;56.096;12.664;2023-05-23T13:46:14;5.75;;;5.15;;
13731;SDS011;6937;56.096;12.664;2023-05-23T13:48:39;5.55;;;4.93;;
13731;SDS011;6937;56.096;12.664;2023-05-23T13:51:05;6.43;;;5.10;;
13731;SDS011;6937;56.096;12.664;2023-05-23T13:53:30;5.65;;;5.03;;
13731;SDS011;6937;56.096;12.664;2023-05-23T13:55:56;6.07;;;4.97;;
13731;SDS011;6937;56.096;12.664;2023-05-23T13:58:21;6.57;;;4.93;;
13731;SDS011;6937;56.096;12.664;2023-05-23T14:00:47;6.35;;;5.00;;
13731;SDS011;6937;56.096;12.664;2023-05-23T14:03:12;5.82;;;5.22;;
13731;SDS011;6937;56.096;12.664;2023-05-23T14:05:39;7.68;;;5.38;;
13731;SDS011;6937;56.096;12.664;2023-05-23T14:08:05;7.22;;;4.90;;
13731;SDS011;6937;56.096;12.664;2023-05-23T14:10:30;6.05;;;4.60;;
13731;SDS011;6937;56.096;12.664;2023-05-23T14:12:57;7.93;;;5.10;;
13731;SDS011;6937;56.096;12.664;2023-05-23T14:15:23;6.22;;;4.70;;
13731;SDS011;6937;56.096;12.664;2023-05-23T14:17:48;5.10;;;4.53;;
13731;SDS011;6937;56.096;12.664;2023-05-23T14:20:19;5.05;;;4.55;;
13731;SDS011;6937;56.096;12.664;2023-05-23T14:22:44;17.52;;;8.73;;
13731;SDS011;6937;56.096;12.664;2023-05-23T14:25:10;8.65;;;5.85;;
13731;SDS011;6937;56.096;12.664;2023-05-23T14:27:35;7.55;;;6.03;;
13731;SDS011;6937;56.096;12.664;2023-05-23T14:30:01;7.15;;;5.05;;
13731;SDS011;6937;56.096;12.664;2023-05-23T14:32:26;6.88;;;5.40;;
13731;SDS011;6937;56.096;12.664;2023-05-23T14:34:52;10.25;;;6.82;;
13731;SDS011;6937;56.096;12.664;2023-05-23T14:37:17;8.27;;;5.97;;
13731;SDS011;6937;56.096;12.664;2023-05-23T14:39:42;7.90;;;5.43;;
13731;SDS011;6937;56.096;12.664;2023-05-23T14:42:08;7.22;;;4.80;;
13731;SDS011;6937;56.096;12.664;2023-05-23T14:44:33;4.55;;;4.15;;
13731;SDS011;6937;56.096;12.664;2023-05-23T14:46:59;6.45;;;4.97;;
13731;SDS011;6937;56.096;12.664;2023-05-23T14:49:24;5.28;;;4.75;;
13731;SDS011;6937;56.096;12.664;2023-05-23T14:51:49;5.07;;;4.60;;
13731;SDS011;6937;56.096;12.664;2023-05-23T14:54:15;5.88;;;4.75;;
13731;SDS011;6937;56.096;12.664;2023-05-23T14:56:40;5.88;;;5.28;;
13731;SDS011;6937;56.096;12.664;2023-05-23T14:59:07;6.13;;;4.65;;
13731;SDS011;6937;56.096;12.664;2023-05-23T15:01:32;5.68;;;4.80;;
13731;SDS011;6937;56.096;12.664;2023-05-23T15:03:58;5.00;;;4.50;;
13731;SDS011;6937;56.096;12.664;2023-05-23T15:06:24;8.02;;;4.72;;